Time;durP1;ratioP1;P1;durP2;ratioP2;P2;SDS_P1;SDS_P2;PMS_P1;PMS_P2;Temp;Humidity;BMP_temperature;BMP_pressure;BME280_temperature;BME280_humidity;BME280_pressure;Samples;Min_cycle;Max_cycle;Signal;HPM_P1;HPM_P2
2023/06/05 00:01:13;;;;;;;5.35;4.45;;;20.40;96.70;;;;;;5063429;28;20500;-70
2023/06/05 00:03:43;;;;;;;5.43;4.32;;;20.50;96.70;;;;;;5063362;28;20038;-71
2023/06/05 00:06:12;;;;;;;5.13;4.15;;;20.40;96.70;;;;;;5044958;28;20056;-72
2023/06/05 00:08:40;;;;;;;7.45;4.20;;;20.50;96.70;;;;;;5061089;28;20037;-71
2023/06/05 00:11:08;;;;;;;4.85;4.35;;;20.50;96.70;;;;;;5054538;28;20042;-71
2023/06/05 00:13:38;;;;;;;5.15;4.20;;;20.50;96.70;;;;;;5063617;28;20431;-71
2023/06/05 00:16:06;;;;;;;4.90;3.67;;;20.60;96.70;;;;;;5095044;28;20072;-71
2023/06/05 00:18:34;;;;;;;4.45;3.90;;;20.70;96.70;;;;;;5062124;28;20418;-71
2023/06/05 00:21:03;;;;;;;4.93;4.22;;;20.60;96.70;;;;;;5061474;28;20056;-72
2023/06/05 00:23:31;;;;;;;4.95;4.30;;;20.70;96.70;;;;;;5062032;28;20057;-71
2023/06/05 00:25:59;;;;;;;4.22;3.63;;;20.70;96.70;;;;;;5062723;28;21094;-71
2023/06/05 00:28:27;;;;;;;4.95;4.30;;;20.70;96.70;;;;;;5061192;28;20037;-71
2023/06/05 00:30:57;;;;;;;4.03;3.63;;;20.70;96.70;;;;;;5063032;28;20064;-71
2023/06/05 00:33:26;;;;;;;5.03;4.10;;;20.70;96.70;;;;;;5045423;28;20040;-71
2023/06/05 00:35:54;;;;;;;5.20;4.28;;;20.70;96.70;;;;;;5062463;28;20139;-71
2023/06/05 00:38:46;;;;;;;5.22;4.05;;;20.70;96.70;;;;;;5053477;28;20049;-71
2023/06/05 00:41:15;;;;;;;4.55;4.05;;;20.70;96.70;;;;;;5062087;28;20502;-71
2023/06/05 00:43:43;;;;;;;7.57;4.78;;;20.70;96.70;;;;;;5061267;28;20048;-70
2023/06/05 00:46:13;;;;;;;4.78;4.28;;;20.70;96.70;;;;;;5053982;28;20060;-71
2023/06/05 00:48:46;;;;;;;5.00;4.50;;;20.60;96.70;;;;;;5066340;28;20047;-71
2023/06/05 00:51:15;;;;;;;5.15;4.65;;;20.60;96.70;;;;;;5061553;28;20068;-72
2023/06/05 00:53:47;;;;;;;5.50;4.15;;;20.60;96.70;;;;;;5049021;28;20049;-73
2023/06/05 00:56:16;;;;;;;4.47;3.90;;;20.60;96.70;;;;;;5065764;28;20102;-73
2023/06/05 00:58:44;;;;;;;6.15;4.32;;;20.60;96.70;;;;;;5061896;28;20693;-70
2023/06/05 01:01:14;;;;;;;5.45;4.18;;;20.60;96.70;;;;;;5048594;28;20067;-71
2023/06/05 01:03:44;;;;;;;5.93;4.30;;;20.70;96.70;;;;;;5086562;22;20438;-71
2023/06/05 01:06:13;;;;;;;5.70;4.38;;;20.70;96.70;;;;;;5044653;28;20048;-71
2023/06/05 01:08:41;;;;;;;6.68;4.82;;;20.70;96.70;;;;;;5044371;28;20060;-71
2023/06/05 01:11:17;;;;;;;4.43;3.97;;;20.70;96.70;;;;;;5045560;28;20077;-71
2023/06/05 01:13:53;;;;;;;6.40;4.75;;;20.60;96.70;;;;;;5043891;28;20095;-71
2023/06/05 01:16:30;;;;;;;;;;;20.60;96.70;;;;;;5043525;28;20049;-71
2023/06/05 01:19:03;;;;;;;6.43;4.53;;;20.60;96.70;;;;;;5038239;28;19925;-72
2023/06/05 01:21:32;;;;;;;6.05;4.82;;;20.60;96.70;;;;;;5035573;28;20121;-72
2023/06/05 01:24:01;;;;;;;7.75;5.65;;;20.70;96.70;;;;;;5057813;28;20445;-71
2023/06/05 01:26:36;;;;;;;5.72;5.03;;;20.70;96.70;;;;;;5044116;28;20134;-70
2023/06/05 01:29:10;;;;;;;6.13;5.03;;;20.70;96.70;;;;;;5045399;28;20045;-71
2023/06/05 01:31:41;;;;;;;5.50;5.00;;;20.60;96.70;;;;;;5036263;28;20049;-71
2023/06/05 01:34:13;;;;;;;5.63;4.88;;;20.70;96.70;;;;;;5044705;28;20503;-73
2023/06/05 01:36:42;;;;;;;6.93;4.97;;;20.60;96.70;;;;;;5044114;28;20400;-71
2023/06/05 01:39:12;;;;;;;6.63;4.90;;;20.60;96.70;;;;;;5043903;28;20094;-71
2023/06/05 01:41:42;;;;;;;5.70;4.45;;;20.60;96.70;;;;;;5042991;28;20049;-71
2023/06/05 01:44:12;;;;;;;7.28;5.38;;;20.60;96.70;;;;;;5046471;28;20048;-70
2023/06/05 01:46:41;;;;;;;6.47;5.32;;;20.70;96.70;;;;;;5031351;28;20048;-70
2023/06/05 01:49:25;;;;;;;5.38;4.88;;;20.60;96.70;;;;;;5024193;28;20852;-70
2023/06/05 01:51:55;;;;;;;5.13;4.63;;;20.60;96.70;;;;;;5041697;28;20665;-70
2023/06/05 01:54:26;;;;;;;6.30;5.30;;;20.60;96.70;;;;;;5043991;28;20041;-72
2023/06/05 01:56:55;;;;;;;6.00;5.13;;;20.60;96.70;;;;;;5021185;28;20540;-72
2023/06/05 01:59:23;;;;;;;5.85;5.25;;;20.60;96.70;;;;;;5042649;28;20589;-72
2023/06/05 02:01:51;;;;;;;6.65;5.18;;;20.60;96.70;;;;;;5025223;28;20095;-72
2023/06/05 02:04:21;;;;;;;7.10;4.93;;;20.60;96.70;;;;;;5042702;28;20418;-71
2023/06/05 02:06:52;;;;;;;6.97;5.45;;;20.70;96.70;;;;;;5043913;28;20060;-72
2023/06/05 02:09:20;;;;;;;9.48;5.90;;;20.60;96.70;;;;;;5043436;28;20041;-72
2023/06/05 02:11:54;;;;;;;6.88;5.93;;;20.60;96.70;;;;;;5043366;28;20136;-72
2023/06/05 02:14:22;;;;;;;10.25;6.43;;;20.50;96.70;;;;;;5036373;28;20037;-72
2023/06/05 02:16:50;;;;;;;9.00;6.07;;;20.40;96.70;;;;;;5036878;28;20044;-72
2023/06/05 02:19:18;;;;;;;7.28;5.47;;;20.40;96.70;;;;;;5030108;28;20049;-72
2023/06/05 02:21:47;;;;;;;9.45;5.28;;;20.30;96.70;;;;;;5039605;28;20588;-72
2023/06/05 02:24:16;;;;;;;8.18;5.70;;;20.30;96.70;;;;;;5043270;28;20049;-70
2023/06/05 02:26:44;;;;;;;9.07;5.68;;;20.40;96.70;;;;;;5043815;28;20506;-71
2023/06/05 02:29:13;;;;;;;8.80;5.70;;;20.30;96.70;;;;;;5042882;28;20119;-71
2023/06/05 02:31:41;;;;;;;9.35;6.40;;;20.30;96.70;;;;;;5041566;28;20041;-71
2023/06/05 02:34:10;;;;;;;9.10;6.53;;;20.30;96.70;;;;;;5043370;28;20053;-70
2023/06/05 02:36:38;;;;;;;8.70;6.20;;;20.30;96.70;;;;;;5038560;28;20135;-71
2023/06/05 02:39:06;;;;;;;7.20;6.18;;;20.30;96.70;;;;;;5023705;28;20080;-71
2023/06/05 02:41:34;;;;;;;10.18;7.55;;;20.30;96.70;;;;;;5036974;28;20422;-71
2023/06/05 02:44:04;;;;;;;8.30;5.80;;;20.30;96.70;;;;;;5025961;28;20037;-71
2023/06/05 02:46:34;;;;;;;7.00;5.95;;;20.30;96.70;;;;;;5042499;28;20091;-71
2023/06/05 02:49:02;;;;;;;7.65;5.65;;;20.30;96.70;;;;;;5040298;28;20047;-70
2023/06/05 02:51:30;;;;;;;6.22;4.93;;;20.30;96.70;;;;;;5040241;28;20395;-71
2023/06/05 02:53:59;;;;;;;8.18;4.72;;;20.40;96.70;;;;;;5036064;28;20511;-71
2023/06/05 02:56:27;;;;;;;8.43;4.93;;;20.40;96.70;;;;;;5038597;28;20056;-71
2023/06/05 02:58:56;;;;;;;5.53;3.83;;;20.40;96.70;;;;;;5027439;28;20045;-71
2023/06/05 03:01:30;;;;;;;5.82;3.80;;;20.40;96.70;;;;;;5028058;28;20118;-71
2023/06/05 03:04:02;;;;;;;5.97;4.18;;;20.40;96.70;;;;;;5029774;28;20551;-71
2023/06/05 03:06:34;;;;;;;6.50;3.55;;;20.40;96.70;;;;;;5053162;28;20158;-70
2023/06/05 03:09:07;;;;;;;6.30;4.18;;;20.40;96.70;;;;;;5025747;28;20420;-71
2023/06/05 03:11:35;;;;;;;6.32;3.58;;;20.40;96.70;;;;;;5040761;28;20107;-71
2023/06/05 03:14:03;;;;;;;7.03;3.22;;;20.40;96.70;;;;;;5030992;28;20041;-71
2023/06/05 03:16:41;;;;;;;4.80;2.75;;;20.40;96.70;;;;;;5040283;28;20501;-71
2023/06/05 03:19:12;;;;;;;4.80;3.00;;;20.30;96.70;;;;;;5041464;28;20059;-70
2023/06/05 03:21:42;;;;;;;4.05;3.03;;;20.30;96.70;;;;;;5041959;28;20045;-70
2023/06/05 03:24:14;;;;;;;3.38;2.85;;;20.20;96.70;;;;;;5039689;28;20069;-71
2023/06/05 03:26:47;;;;;;;7.72;2.83;;;20.20;96.70;;;;;;5056598;28;20080;-70
2023/06/05 03:29:16;;;;;;;6.18;3.00;;;20.20;96.70;;;;;;5041615;28;20168;-70
2023/06/05 03:31:44;;;;;;;3.80;3.00;;;20.10;96.70;;;;;;5025136;28;20072;-70
2023/06/05 03:34:14;;;;;;;3.75;2.95;;;20.10;96.70;;;;;;5035125;28;20053;-70
2023/06/05 03:36:42;;;;;;;5.03;3.33;;;20.10;96.70;;;;;;5042268;28;20055;-71
2023/06/05 03:39:14;;;;;;;3.33;2.97;;;20.10;96.70;;;;;;5038782;28;20044;-71
2023/06/05 03:41:43;;;;;;;5.22;3.08;;;20.00;96.70;;;;;;5037182;28;20045;-71
2023/06/05 03:44:11;;;;;;;7.13;2.85;;;20.00;96.70;;;;;;5043007;28;20586;-71
2023/06/05 03:46:39;;;;;;;5.15;2.80;;;20.00;96.70;;;;;;5043086;28;20080;-71
2023/06/05 03:49:09;;;;;;;5.15;3.00;;;20.00;96.70;;;;;;5039025;28;20103;-72
2023/06/05 03:51:44;;;;;;;3.90;2.42;;;20.10;96.70;;;;;;5029756;28;20042;-71
2023/06/05 03:54:12;;;;;;;4.43;2.80;;;20.10;96.70;;;;;;5030992;28;20049;-72
2023/06/05 03:56:43;;;;;;;4.50;2.92;;;20.10;96.70;;;;;;5040410;28;20425;-70
2023/06/05 03:59:21;;;;;;;3.75;2.90;;;20.10;96.70;;;;;;5041528;28;20059;-71
2023/06/05 04:01:55;;;;;;;4.93;3.33;;;20.00;96.70;;;;;;5037822;28;20684;-72
2023/06/05 04:04:24;;;;;;;3.67;2.83;;;20.10;96.70;;;;;;5039585;28;20049;-71
2023/06/05 04:06:55;;;;;;;4.93;2.78;;;20.00;96.70;;;;;;5042369;28;20049;-70
2023/06/05 04:09:25;;;;;;;3.08;2.78;;;20.00;96.70;;;;;;5023920;28;20060;-70
2023/06/05 04:11:54;;;;;;;3.22;2.70;;;20.00;96.70;;;;;;5041918;28;20094;-70
2023/06/05 04:14:23;;;;;;;5.78;3.10;;;20.10;96.70;;;;;;5037696;28;20103;-70
2023/06/05 04:16:51;;;;;;;4.75;2.85;;;20.10;96.70;;;;;;5024126;28;20519;-69
2023/06/05 04:19:22;;;;;;;7.38;3.13;;;20.10;96.70;;;;;;5039316;28;20559;-69
2023/06/05 04:21:56;;;;;;;4.85;3.47;;;20.10;96.70;;;;;;5040043;28;20055;-70
2023/06/05 04:24:27;;;;;;;4.90;2.92;;;20.10;96.70;;;;;;5042864;28;20037;-70
2023/06/05 04:26:56;;;;;;;5.10;3.13;;;20.10;96.70;;;;;;5036514;28;20060;-70
2023/06/05 04:29:24;;;;;;;5.35;2.92;;;20.10;96.70;;;;;;5043278;28;20044;-70
2023/06/05 04:31:52;;;;;;;3.28;2.90;;;20.10;96.70;;;;;;5046407;28;20142;-70
2023/06/05 04:34:20;;;;;;;4.38;2.90;;;20.10;96.70;;;;;;5046054;28;20045;-71
2023/06/05 04:36:49;;;;;;;3.90;3.30;;;20.20;96.70;;;;;;5046672;28;20098;-71
2023/06/05 04:39:44;;;;;;;4.25;3.28;;;20.30;96.70;;;;;;5045656;28;20140;-71
2023/06/05 04:42:14;;;;;;;3.63;2.60;;;20.30;96.70;;;;;;5053669;28;20543;-69
2023/06/05 04:44:56;;;;;;;5.55;3.08;;;20.30;96.70;;;;;;5040273;28;20037;-69
2023/06/05 04:47:25;;;;;;;5.70;3.08;;;20.30;96.70;;;;;;5052370;28;20083;-69
2023/06/05 04:49:53;;;;;;;4.72;3.03;;;20.30;96.70;;;;;;5035460;28;20056;-70
2023/06/05 04:52:23;;;;;;;3.17;2.75;;;20.30;96.70;;;;;;5042007;28;20049;-70
2023/06/05 04:54:54;;;;;;;3.30;3.00;;;20.30;96.70;;;;;;5050483;28;20044;-70
2023/06/05 04:57:24;;;;;;;3.25;2.95;;;20.40;96.70;;;;;;5041191;28;20068;-69
2023/06/05 04:59:52;;;;;;;4.03;3.17;;;20.40;96.70;;;;;;5042750;28;20132;-70
2023/06/05 05:02:21;;;;;;;4.30;3.08;;;20.40;96.70;;;;;;5045635;28;20057;-70
2023/06/05 05:04:49;;;;;;;4.90;2.70;;;20.40;96.70;;;;;;5046271;28;20059;-70
2023/06/05 05:07:18;;;;;;;6.00;3.13;;;20.30;96.70;;;;;;5045102;28;20140;-71
2023/06/05 05:10:05;;;;;;;2.92;2.65;;;20.40;96.70;;;;;;5044883;28;20410;-70
2023/06/05 05:12:34;;;;;;;6.43;3.20;;;20.50;96.70;;;;;;5050121;28;20468;-71
2023/06/05 05:15:03;;;;;;;5.07;2.92;;;20.50;96.70;;;;;;5055006;28;20099;-70
2023/06/05 05:17:32;;;;;;;3.67;2.85;;;20.50;96.70;;;;;;5044620;28;20295;-71
2023/06/05 05:20:06;;;;;;;5.88;3.08;;;20.50;96.70;;;;;;5044873;28;20578;-71
2023/06/05 05:22:37;;;;;;;3.40;3.10;;;20.50;96.70;;;;;;5044576;28;20048;-71
2023/06/05 05:25:08;;;;;;;5.50;3.28;;;20.50;96.70;;;;;;5043478;28;20037;-71
2023/06/05 05:27:37;;;;;;;5.72;3.70;;;20.40;96.70;;;;;;5036371;28;20056;-70
2023/06/05 05:30:07;;;;;;;5.10;3.17;;;20.40;96.70;;;;;;5043915;28;20049;-72
2023/06/05 05:32:35;;;;;;;5.05;3.13;;;20.30;96.70;;;;;;5037378;28;20544;-71
2023/06/05 05:35:04;;;;;;;5.35;3.75;;;20.30;96.70;;;;;;5042237;28;20140;-71
2023/06/05 05:37:34;;;;;;;3.50;3.20;;;20.30;96.70;;;;;;5045297;28;20049;-71
2023/06/05 05:40:03;;;;;;;4.40;3.45;;;20.40;96.70;;;;;;5037923;28;20142;-72
2023/06/05 05:42:33;;;;;;;3.67;3.10;;;20.40;96.70;;;;;;5043968;28;20461;-72
2023/06/05 05:45:01;;;;;;;2.88;2.67;;;20.40;96.70;;;;;;5041463;28;20347;-71
2023/06/05 05:47:29;;;;;;;4.90;4.20;;;20.50;96.70;;;;;;5045786;28;20553;-71
2023/06/05 05:49:57;;;;;;;4.30;3.63;;;20.40;96.70;;;;;;5045357;28;20044;-70
2023/06/05 05:52:25;;;;;;;3.70;3.40;;;20.50;96.70;;;;;;5044434;28;20052;-71
2023/06/05 05:54:53;;;;;;;3.58;3.28;;;20.50;96.70;;;;;;5045390;28;20673;-70
2023/06/05 05:57:21;;;;;;;3.40;3.10;;;20.60;96.70;;;;;;5043444;28;20045;-71
2023/06/05 05:59:51;;;;;;;3.17;2.80;;;20.60;96.70;;;;;;5045473;28;20127;-71
2023/06/05 06:02:20;;;;;;;4.05;3.13;;;20.40;96.70;;;;;;5037657;28;20075;-70
2023/06/05 06:04:48;;;;;;;3.53;3.00;;;20.50;96.70;;;;;;5033873;28;20485;-71
2023/06/05 06:07:16;;;;;;;3.13;2.78;;;20.60;96.70;;;;;;5036787;28;20036;-72
2023/06/05 06:09:45;;;;;;;4.57;2.80;;;20.60;96.70;;;;;;5036422;28;20095;-71
2023/06/05 06:12:13;;;;;;;3.13;2.88;;;20.60;96.70;;;;;;5020997;28;20424;-71
2023/06/05 06:14:41;;;;;;;3.58;3.28;;;20.60;96.70;;;;;;5032635;28;20528;-70
2023/06/05 06:17:12;;;;;;;3.70;2.85;;;20.60;96.70;;;;;;5031604;28;20079;-71
2023/06/05 06:19:40;;;;;;;4.60;3.08;;;20.70;96.70;;;;;;5039157;28;20048;-70
2023/06/05 06:22:11;;;;;;;3.40;3.10;;;20.70;96.70;;;;;;5042273;28;20124;-70
2023/06/05 06:24:41;;;;;;;3.88;3.17;;;20.70;96.70;;;;;;5038686;28;20041;-70
2023/06/05 06:27:10;;;;;;;3.80;3.42;;;20.80;96.70;;;;;;5041439;28;20430;-70
2023/06/05 06:29:48;;;;;;;3.75;3.17;;;20.80;96.70;;;;;;5040942;28;20139;-70
2023/06/05 06:32:18;;;;;;;3.80;3.35;;;20.80;96.70;;;;;;5040030;28;20073;-70
2023/06/05 06:34:46;;;;;;;3.85;3.53;;;20.90;96.70;;;;;;5044359;28;20137;-70
2023/06/05 06:37:19;;;;;;;3.65;3.10;;;20.90;96.70;;;;;;5043354;28;20546;-70
2023/06/05 06:39:47;;;;;;;4.10;3.80;;;21.00;96.70;;;;;;5037572;28;20069;-71
2023/06/05 06:42:15;;;;;;;3.55;3.20;;;21.00;96.70;;;;;;5030895;28;20041;-70
2023/06/05 06:44:55;;;;;;;4.10;3.78;;;21.00;96.70;;;;;;5037947;28;20124;-70
2023/06/05 06:47:25;;;;;;;4.30;3.90;;;21.10;96.70;;;;;;5040511;28;20052;-70
2023/06/05 06:49:54;;;;;;;4.95;3.95;;;21.10;96.70;;;;;;5040487;28;20091;-71
2023/06/05 06:52:23;;;;;;;3.88;3.45;;;21.10;96.70;;;;;;5037314;28;20059;-70
2023/06/05 06:54:53;;;;;;;3.92;3.63;;;21.10;96.70;;;;;;5044158;28;20135;-70
2023/06/05 06:57:21;;;;;;;4.25;3.30;;;21.00;96.70;;;;;;5032230;28;20047;-70
2023/06/05 06:59:49;;;;;;;4.10;3.38;;;20.90;96.70;;;;;;5042470;28;20118;-70
2023/06/05 07:02:19;;;;;;;5.53;3.97;;;20.90;96.70;;;;;;5036373;28;20117;-70
2023/06/05 07:04:49;;;;;;;4.22;3.83;;;21.00;96.70;;;;;;5042740;28;20529;-70
2023/06/05 07:07:18;;;;;;;3.65;3.35;;;21.10;96.70;;;;;;5033080;28;20095;-71
2023/06/05 07:09:46;;;;;;;4.07;3.60;;;21.20;96.70;;;;;;5033547;28;20589;-71
2023/06/05 07:12:16;;;;;;;4.22;3.25;;;21.40;96.70;;;;;;5035011;28;20124;-70
2023/06/05 07:14:44;;;;;;;3.83;3.22;;;21.50;96.70;;;;;;5041948;28;20044;-70
2023/06/05 07:17:12;;;;;;;4.70;3.63;;;21.50;96.70;;;;;;5042327;28;20036;-70
2023/06/05 07:19:40;;;;;;;3.90;3.50;;;21.50;96.70;;;;;;5040960;28;20492;-71
2023/06/05 07:22:11;;;;;;;3.42;3.13;;;21.60;96.70;;;;;;5036468;28;20072;-71
2023/06/05 07:24:40;;;;;;;3.60;2.90;;;21.70;96.70;;;;;;5035875;28;20172;-71
2023/06/05 07:27:08;;;;;;;4.40;3.08;;;21.70;96.70;;;;;;5039852;28;20072;-71
2023/06/05 07:29:36;;;;;;;3.92;3.45;;;21.70;96.70;;;;;;5042177;28;20041;-72
2023/06/05 07:32:06;;;;;;;3.08;2.78;;;21.80;96.70;;;;;;5034897;28;20061;-71
2023/06/05 07:34:34;;;;;;;3.78;2.92;;;21.90;96.70;;;;;;5034142;28;20045;-70
2023/06/05 07:37:03;;;;;;;4.57;3.00;;;22.00;96.70;;;;;;5043444;28;20037;-70
2023/06/05 07:39:32;;;;;;;4.00;2.97;;;22.10;96.70;;;;;;5039818;28;20058;-71
2023/06/05 07:42:00;;;;;;;3.20;2.90;;;22.20;96.70;;;;;;5039465;28;20568;-71
2023/06/05 07:44:28;;;;;;;4.38;2.75;;;22.40;96.70;;;;;;5041684;28;20049;-72
2023/06/05 07:46:56;;;;;;;4.47;2.72;;;22.50;96.70;;;;;;5041969;28;20047;-72
2023/06/05 07:49:24;;;;;;;3.17;2.38;;;22.50;96.70;;;;;;5043254;28;20071;-71
2023/06/05 07:51:52;;;;;;;2.42;2.22;;;22.60;96.70;;;;;;5043162;28;20036;-72
2023/06/05 07:54:21;;;;;;;2.78;2.30;;;22.60;96.70;;;;;;5042065;28;20048;-72
2023/06/05 07:56:51;;;;;;;2.55;2.20;;;22.70;96.70;;;;;;5042028;28;20104;-72
2023/06/05 07:59:24;;;;;;;2.20;2.00;;;22.70;96.70;;;;;;5041996;28;20044;-72
2023/06/05 08:01:52;;;;;;;3.72;2.10;;;22.70;96.70;;;;;;5042894;28;20098;-71
2023/06/05 08:04:24;;;;;;;2.38;1.90;;;22.70;96.70;;;;;;5031603;28;20064;-71
2023/06/05 08:06:53;;;;;;;2.88;2.50;;;22.70;96.70;;;;;;5040769;28;20053;-71
2023/06/05 08:09:21;;;;;;;4.50;2.40;;;22.70;96.70;;;;;;5043153;28;20045;-71
2023/06/05 08:11:50;;;;;;;2.65;2.42;;;22.60;96.70;;;;;;5040839;28;20064;-71
2023/06/05 08:14:18;;;;;;;4.18;3.00;;;22.60;96.70;;;;;;5038084;28;20052;-71
2023/06/05 08:16:46;;;;;;;3.42;2.55;;;22.50;96.70;;;;;;5041431;28;20560;-72
2023/06/05 08:19:14;;;;;;;3.50;3.05;;;22.60;96.70;;;;;;5041882;28;20110;-72
2023/06/05 08:21:41;;;;;;;2.67;2.38;;;22.60;96.70;;;;;;5043196;28;20127;-72
2023/06/05 08:24:09;;;;;;;6.22;3.22;;;22.70;96.70;;;;;;5042404;28;20044;-71
2023/06/05 08:26:37;;;;;;;2.90;2.60;;;22.80;96.70;;;;;;5042576;28;20148;-72
2023/06/05 08:29:07;;;;;;;3.67;2.58;;;22.80;96.70;;;;;;5042929;28;20168;-71
2023/06/05 08:31:36;;;;;;;4.00;2.70;;;22.70;96.70;;;;;;5041477;28;20048;-72
2023/06/05 08:34:05;;;;;;;3.30;2.40;;;22.70;96.70;;;;;;5041303;28;20048;-71
2023/06/05 08:36:34;;;;;;;3.78;2.70;;;22.70;96.70;;;;;;5041063;28;20055;-71
2023/06/05 08:39:04;;;;;;;2.60;2.35;;;22.70;96.70;;;;;;5042766;28;20045;-71
2023/06/05 08:41:32;;;;;;;2.50;2.30;;;22.80;96.70;;;;;;5040093;28;20049;-72
2023/06/05 08:44:00;;;;;;;2.90;2.10;;;23.00;96.70;;;;;;5040020;28;20069;-72
2023/06/05 08:46:30;;;;;;;4.10;2.55;;;23.20;96.70;;;;;;5042429;28;20495;-71
2023/06/05 08:49:07;;;;;;;2.88;2.00;;;23.30;96.70;;;;;;5023789;28;20051;-72
2023/06/05 08:51:35;;;;;;;;;;;23.40;96.70;;;;;;5033370;28;20042;-72
2023/06/05 08:54:06;;;;;;;2.95;2.20;;;23.40;96.70;;;;;;5041147;28;20127;-72
2023/06/05 08:56:36;;;;;;;3.10;2.63;;;23.40;96.70;;;;;;5040396;28;20065;-72
2023/06/05 08:59:07;;;;;;;5.15;2.53;;;23.20;96.70;;;;;;5038985;28;20033;-72
2023/06/05 09:01:37;;;;;;;3.03;2.42;;;23.20;96.70;;;;;;5039227;28;20041;-71
2023/06/05 09:04:07;;;;;;;2.78;2.42;;;23.20;96.70;;;;;;5037665;28;20083;-72
2023/06/05 09:06:36;;;;;;;2.63;2.17;;;23.10;96.70;;;;;;5042495;28;20044;-71
2023/06/05 09:09:07;;;;;;;2.63;2.30;;;23.10;96.70;;;;;;5044335;28;20041;-73
2023/06/05 09:11:39;;;;;;;4.05;2.03;;;23.00;96.70;;;;;;5026789;28;20064;-72
2023/06/05 09:14:07;;;;;;;3.17;2.38;;;23.00;96.70;;;;;;5045000;28;20049;-73
2023/06/05 09:16:38;;;;;;;2.58;2.30;;;23.00;96.70;;;;;;5043842;28;20173;-74
2023/06/05 09:19:07;;;;;;;2.65;2.20;;;22.90;96.70;;;;;;5044802;28;20040;-73
2023/06/05 09:21:36;;;;;;;2.88;2.08;;;22.80;96.70;;;;;;5043746;28;20478;-72
2023/06/05 09:24:12;;;;;;;2.70;2.22;;;22.70;96.70;;;;;;5044868;28;20032;-71
2023/06/05 09:26:48;;;;;;;4.13;2.40;;;22.70;96.70;;;;;;5038300;28;20045;-74
2023/06/05 09:29:24;;;;;;;3.53;1.98;;;22.70;96.70;;;;;;5045858;28;20604;-73
2023/06/05 09:31:55;;;;;;;2.35;2.13;;;22.60;96.70;;;;;;5045656;28;20453;-73
2023/06/05 09:34:25;;;;;;;3.42;2.13;;;22.60;96.70;;;;;;5057636;28;20045;-73
2023/06/05 09:36:54;;;;;;;3.17;2.10;;;22.60;96.70;;;;;;5027662;28;20048;-73
2023/06/05 09:39:25;;;;;;;2.25;2.00;;;22.70;96.70;;;;;;5043685;28;20049;-71
2023/06/05 09:41:54;;;;;;;5.07;2.53;;;22.80;96.70;;;;;;5043454;28;20045;-72
2023/06/05 09:44:23;;;;;;;2.47;2.00;;;22.90;96.70;;;;;;5034840;28;20548;-74
2023/06/05 09:46:54;;;;;;;5.97;2.45;;;23.00;96.70;;;;;;5045370;28;20044;-74
2023/06/05 09:49:24;;;;;;;3.85;2.72;;;22.90;96.70;;;;;;5043894;28;20040;-74
2023/06/05 09:51:54;;;;;;;4.25;2.33;;;22.90;96.70;;;;;;5043949;28;20055;-74
2023/06/05 09:54:25;;;;;;;3.53;2.50;;;23.00;96.70;;;;;;5059374;28;20546;-74
2023/06/05 09:56:57;;;;;;;5.88;2.50;;;22.90;96.70;;;;;;5043562;28;20056;-74
2023/06/05 09:59:29;;;;;;;4.20;2.30;;;22.90;96.70;;;;;;5041839;28;20044;-74
2023/06/05 10:02:01;;;;;;;2.92;2.45;;;22.90;96.70;;;;;;5038012;28;20045;-73
2023/06/05 10:04:32;;;;;;;3.80;2.50;;;22.90;96.70;;;;;;5034090;28;20161;-74
2023/06/05 10:07:01;;;;;;;3.58;2.30;;;22.90;96.70;;;;;;5041167;28;20054;-73
2023/06/05 10:09:31;;;;;;;4.28;2.45;;;22.80;96.70;;;;;;5044548;28;20053;-73
2023/06/05 10:12:00;;;;;;;3.55;2.47;;;22.80;96.70;;;;;;5039025;28;20375;-73
2023/06/05 10:14:29;;;;;;;3.75;2.80;;;22.80;96.70;;;;;;5044756;28;20053;-73
2023/06/05 10:16:59;;;;;;;2.72;2.10;;;22.80;96.70;;;;;;5044323;28;20040;-73
2023/06/05 10:19:27;;;;;;;5.20;2.67;;;22.90;96.70;;;;;;5043300;28;20095;-73
2023/06/05 10:21:55;;;;;;;2.67;2.13;;;23.10;96.70;;;;;;5041357;28;20051;-72
2023/06/05 10:24:28;;;;;;;2.65;2.17;;;23.20;96.70;;;;;;5042304;28;20112;-73
2023/06/05 10:27:29;;;;;;;1.83;1.58;;;23.40;96.70;;;;;;5042808;28;20079;-73
2023/06/05 10:30:25;;;;;;;2.85;1.67;;;23.70;96.70;;;;;;5042466;28;20503;-73
2023/06/05 10:33:09;;;;;;;2.70;1.77;;;23.70;96.70;;;;;;5031546;28;20049;-73
2023/06/05 10:35:51;;;;;;;2.53;2.33;;;23.80;96.70;;;;;;5043201;28;20052;-73
2023/06/05 10:38:21;;;;;;;2.70;1.92;;;23.80;96.70;;;;;;5026558;28;20076;-73
2023/06/05 10:40:53;;;;;;;2.15;1.80;;;23.90;96.70;;;;;;5042911;28;20045;-73
2023/06/05 10:43:29;;;;;;;2.75;1.55;;;24.10;96.70;;;;;;5044314;28;20045;-73
2023/06/05 10:45:59;;;;;;;1.70;1.48;;;24.30;96.70;;;;;;5043003;28;20060;-73
2023/06/05 10:49:09;;;;;;;1.92;1.35;;;24.30;96.70;;;;;;5042230;28;20060;-73
2023/06/05 10:51:39;;;;;;;2.30;1.83;;;24.30;96.70;;;;;;5041767;28;20048;-72
2023/06/05 10:54:08;;;;;;;2.38;1.77;;;24.50;96.70;;;;;;5044365;28;20084;-73
2023/06/05 10:57:00;;;;;;;3.22;1.70;;;24.50;96.70;;;;;;5042214;28;20048;-73
2023/06/05 10:59:29;;;;;;;2.10;1.85;;;24.70;96.70;;;;;;5035723;28;20042;-73
2023/06/05 11:02:24;;;;;;;3.83;1.70;;;25.10;96.70;;;;;;5041342;28;20516;-73
2023/06/05 11:05:10;;;;;;;2.63;1.90;;;25.50;96.70;;;;;;5034295;28;20686;-73
2023/06/05 11:07:39;;;;;;;2.92;1.90;;;25.60;96.70;;;;;;5033114;28;20052;-73
2023/06/05 11:10:09;;;;;;;4.03;2.10;;;25.80;96.70;;;;;;5040237;28;20056;-73
2023/06/05 11:12:57;;;;;;;3.58;2.30;;;25.90;96.70;;;;;;5020400;28;20045;-73
2023/06/05 11:15:40;;;;;;;;;;;26.30;96.70;;;;;;5015819;28;20049;-73
2023/06/05 11:18:31;;;;;;;2.30;2.10;;;26.30;96.70;;;;;;5042868;28;19925;-73
2023/06/05 11:21:02;;;;;;;4.32;1.80;;;26.40;96.70;;;;;;5043426;28;20044;-73
2023/06/05 11:23:30;;;;;;;3.38;1.50;;;26.30;96.70;;;;;;5035973;28;20051;-73
2023/06/05 11:26:36;;;;;;;2.45;1.85;;;26.00;96.70;;;;;;5043662;28;20068;-73
2023/06/05 11:29:15;;;;;;;2.65;2.00;;;25.50;96.70;;;;;;5043469;28;20049;-73
2023/06/05 11:31:45;;;;;;;2.88;2.03;;;25.30;96.70;;;;;;5037314;28;20260;-73
2023/06/05 11:34:14;;;;;;;3.88;2.33;;;25.20;96.70;;;;;;5023255;28;20457;-73
2023/06/05 11:36:47;;;;;;;2.28;1.85;;;25.40;96.70;;;;;;5043557;28;20087;-73
2023/06/05 11:39:16;;;;;;;3.78;1.73;;;25.70;96.70;;;;;;5043365;28;20051;-73
2023/06/05 11:41:46;;;;;;;2.20;1.98;;;25.70;96.70;;;;;;5041750;28;20072;-73
2023/06/05 11:44:15;;;;;;;3.22;2.00;;;25.90;96.70;;;;;;5043621;28;20051;-73
2023/06/05 11:46:43;;;;;;;2.75;2.25;;;26.00;96.70;;;;;;5043469;28;20053;-73
2023/06/05 11:49:25;;;;;;;1.90;1.60;;;26.00;96.70;;;;;;5041454;28;20077;-73
2023/06/05 11:51:55;;;;;;;3.58;2.10;;;26.10;96.70;;;;;;5035106;28;20045;-73
2023/06/05 11:54:29;;;;;;;1.88;1.67;;;26.10;96.70;;;;;;5043279;28;20049;-73
2023/06/05 11:56:58;;;;;;;2.20;1.77;;;26.20;96.70;;;;;;5032179;28;20052;-73
2023/06/05 11:59:27;;;;;;;2.53;1.50;;;26.60;96.70;;;;;;5041084;28;20049;-73
2023/06/05 12:01:55;;;;;;;2.72;1.40;;;26.90;96.70;;;;;;5042021;28;20557;-73
2023/06/05 12:04:23;;;;;;;1.95;1.52;;;26.80;96.70;;;;;;5042783;28;20187;-74
2023/06/05 12:06:53;;;;;;;1.50;1.40;;;26.80;96.70;;;;;;5042731;28;20045;-73
2023/06/05 12:09:22;;;;;;;2.78;1.67;;;26.50;96.70;;;;;;5042633;28;20048;-74
2023/06/05 12:11:50;;;;;;;1.90;1.42;;;26.20;96.70;;;;;;5041678;28;20041;-73
2023/06/05 12:14:31;;;;;;;2.53;1.23;;;26.00;96.70;;;;;;5023961;28;20399;-74
2023/06/05 12:17:00;;;;;;;1.65;1.38;;;25.80;96.70;;;;;;5041515;28;20048;-73
2023/06/05 12:19:28;;;;;;;2.72;1.60;;;25.60;96.70;;;;;;5042722;28;20152;-73
2023/06/05 12:22:04;;;;;;;2.90;1.45;;;25.50;96.70;;;;;;5041946;28;20047;-71
2023/06/05 12:24:34;;;;;;;2.05;1.55;;;25.50;96.70;;;;;;5042454;28;20049;-71
2023/06/05 12:27:04;;;;;;;1.58;1.48;;;25.40;96.70;;;;;;5049060;28;20057;-71
2023/06/05 12:29:34;;;;;;;4.10;1.50;;;25.30;96.70;;;;;;5018893;28;20048;-71
2023/06/05 12:32:18;;;;;;;1.50;1.30;;;25.30;96.70;;;;;;5042905;28;20142;-70
2023/06/05 12:34:50;;;;;;;1.90;1.10;;;25.20;96.70;;;;;;5042294;28;20127;-71
2023/06/05 12:37:27;;;;;;;1.98;1.10;;;25.10;96.70;;;;;;5043153;28;20041;-71
2023/06/05 12:39:58;;;;;;;2.58;1.40;;;25.00;96.70;;;;;;5024958;28;20053;-71
2023/06/05 12:42:35;;;;;;;1.50;1.38;;;25.00;96.70;;;;;;5041521;28;20063;-71
2023/06/05 12:45:04;;;;;;;1.55;1.25;;;25.00;96.70;;;;;;5043998;28;20483;-71
2023/06/05 12:47:33;;;;;;;1.60;1.05;;;25.00;96.70;;;;;;5045038;28;20787;-71
2023/06/05 12:50:02;;;;;;;2.00;1.20;;;25.00;96.70;;;;;;5046037;28;20064;-71
2023/06/05 12:52:30;;;;;;;1.35;1.10;;;25.10;96.70;;;;;;5044701;28;20489;-71
2023/06/05 12:55:03;;;;;;;2.25;1.30;;;25.10;96.70;;;;;;5045594;28;20144;-71
2023/06/05 12:57:32;;;;;;;1.40;1.30;;;25.20;96.70;;;;;;5045709;28;20078;-71
2023/06/05 13:00:05;;;;;;;1.73;1.40;;;25.20;96.70;;;;;;5044057;28;20123;-71
2023/06/05 13:02:36;;;;;;;3.22;1.25;;;25.10;96.70;;;;;;5044564;28;20049;-74
2023/06/05 13:05:06;;;;;;;3.10;1.20;;;25.10;96.70;;;;;;5044137;28;20087;-73
2023/06/05 13:07:37;;;;;;;2.47;1.20;;;25.00;96.70;;;;;;5045530;28;20048;-73